createdAt,value
2018-02-16T00:00:26.876Z,32.10
2018-02-16T00:05:28.659Z,32.27
2018-02-16T00:10:29.650Z,33.07
2018-02-16T00:15:30.658Z,32.30
2018-02-16T00:20:31.652Z,32.23
2018-02-16T00:25:32.671Z,31.67
2018-02-16T00:30:33.671Z,33.80
2018-02-16T00:35:34.663Z,33.13
2018-02-16T00:40:35.663Z,33.07
2018-02-16T00:45:36.673Z,30.27
2018-02-16T00:50:38.411Z,30.23
2018-02-16T00:55:39.402Z,31.20
2018-02-16T01:00:40.410Z,30.20
2018-02-16T01:05:41.394Z,30.43
2018-02-16T01:10:42.377Z,31.70
2018-02-16T01:15:43.351Z,31.27
2018-02-16T01:20:44.334Z,29.43
2018-02-16T01:25:45.309Z,29.60
2018-02-16T01:30:46.294Z,29.77
2018-02-16T01:35:47.276Z,30.40
2018-02-16T01:40:48.284Z,28.50
2018-02-16T01:45:49.291Z,31.40
2018-02-16T01:50:51.031Z,31.40
2018-02-16T01:55:52.010Z,30.47
2018-02-16T02:00:52.994Z,30.97
2018-02-16T02:05:53.990Z,30.17
2018-02-16T02:10:54.976Z,31.00
2018-02-16T02:15:55.975Z,31.47
2018-02-16T02:20:57.715Z,29.80
2018-02-16T02:25:58.699Z,31.67
2018-02-16T02:30:59.703Z,32.20
2018-02-16T02:36:00.695Z,32.60
2018-02-16T02:41:01.696Z,31.33
2018-02-16T02:46:02.703Z,30.17
2018-02-16T02:51:04.436Z,30.37
2018-02-16T02:56:05.463Z,30.13
2018-02-16T03:01:06.474Z,28.97
2018-02-16T03:06:08.190Z,29.73
2018-02-16T03:11:09.198Z,32.30
2018-02-16T03:16:10.202Z,28.40
2018-02-16T03:21:11.212Z,30.60
2018-02-16T03:26:12.212Z,29.20
2018-02-16T03:31:13.199Z,31.33
2018-02-16T03:36:14.220Z,29.73
2018-02-16T03:41:15.239Z,27.13
2018-02-16T03:46:16.238Z,28.53
2018-02-16T03:51:17.250Z,28.10
2018-02-16T03:56:18.251Z,29.40
2018-02-16T04:01:19.252Z,29.10
2018-02-16T04:06:20.247Z,31.10
2018-02-16T04:11:21.253Z,30.00
2018-02-16T04:16:22.974Z,31.43
2018-02-16T04:21:23.970Z,32.03
2018-02-16T04:26:24.992Z,31.73
2018-02-16T04:31:26.000Z,33.97
2018-02-16T04:36:27.751Z,32.00
2018-02-16T04:41:28.836Z,33.10
2018-02-16T04:46:29.855Z,35.43
2018-02-16T04:51:31.596Z,33.33
2018-02-16T04:56:32.598Z,30.60
2018-02-16T05:01:33.600Z,25.63
2018-02-16T05:06:34.596Z,24.50
2018-02-16T05:11:36.386Z,25.90
2018-02-16T05:16:37.492Z,26.40
2018-02-16T05:21:39.262Z,26.23
2018-02-16T05:26:40.279Z,27.40
2018-02-16T05:31:42.067Z,27.57
2018-02-16T05:36:43.820Z,24.60
2018-02-16T05:41:44.820Z,27.93
2018-02-16T05:46:45.818Z,22.27
2018-02-16T05:51:46.814Z,23.13
2018-02-16T05:56:48.546Z,21.67
2018-02-16T06:01:49.548Z,20.30
2018-02-16T06:06:50.559Z,17.90
2018-02-16T06:11:52.455Z,20.73
2018-02-16T06:16:53.438Z,21.97
2018-02-16T06:21:54.447Z,24.30
2018-02-16T06:26:55.442Z,22.50
2018-02-16T06:31:57.194Z,19.03
2018-02-16T06:36:58.182Z,19.67
2018-02-16T06:41:59.183Z,21.80
2018-02-16T06:47:00.190Z,20.83
2018-02-16T06:52:01.949Z,19.53
2018-02-16T06:57:02.947Z,24.93
2018-02-16T07:02:03.956Z,25.30
2018-02-16T07:07:05.723Z,25.00
2018-02-16T07:12:06.741Z,36.67
2018-02-16T07:17:08.478Z,23.40
2018-02-16T07:22:09.507Z,21.60
2018-02-16T07:27:10.525Z,25.37
2018-02-16T07:32:11.511Z,23.83
2018-02-16T07:37:12.511Z,22.00
2018-02-16T07:42:13.532Z,25.40
2018-02-16T07:47:14.540Z,20.80
2018-02-16T07:52:16.275Z,17.20
2018-02-16T07:57:17.275Z,13.67
2018-02-16T08:02:18.291Z,14.70
2018-02-16T08:07:20.039Z,14.57
2018-02-16T08:12:21.040Z,15.70
2018-02-16T08:17:22.043Z,16.17
2018-02-16T08:22:23.055Z,17.23
2018-02-16T08:27:24.793Z,18.97
2018-02-16T08:32:25.795Z,20.00
2018-02-16T08:37:26.815Z,19.40
2018-02-16T08:47:57.423Z,22.97
2018-02-16T08:52:58.434Z,20.80
2018-02-16T08:58:00.174Z,21.73
2018-02-16T09:03:01.199Z,19.03
2018-02-16T09:08:02.240Z,16.90
2018-02-16T09:13:03.256Z,17.67
2018-02-16T09:18:04.262Z,19.70
2018-02-16T09:23:06.047Z,18.57
2018-02-16T09:28:07.042Z,20.33
2018-02-16T09:33:08.087Z,17.57
2018-02-16T09:38:09.098Z,18.83
2018-02-16T09:43:10.103Z,20.03
2018-02-16T09:48:11.851Z,19.17
2018-02-16T09:53:12.859Z,17.73
2018-02-16T09:58:13.883Z,20.57
2018-02-16T10:03:14.890Z,19.00
2018-02-16T10:08:17.228Z,19.03
2018-02-16T10:13:18.235Z,18.97
2018-02-16T10:18:19.268Z,19.57
2018-02-16T10:23:20.292Z,17.40
2018-02-16T10:28:22.051Z,19.03
2018-02-16T10:33:23.056Z,20.13
2018-02-16T10:38:24.067Z,20.40
2018-02-16T10:43:25.843Z,19.97
2018-02-16T10:48:26.843Z,16.03
2018-02-16T10:53:27.847Z,16.73
2018-02-16T10:58:29.631Z,15.90
2018-02-16T11:03:36.680Z,17.63
2018-02-16T11:08:43.831Z,12.80
2018-02-16T11:13:44.839Z,12.10
2018-02-16T11:18:45.835Z,11.87
2018-02-16T11:23:46.869Z,15.93
2018-02-16T11:28:47.872Z,15.50
2018-02-16T11:33:48.871Z,15.13
2018-02-16T11:38:49.867Z,14.40
2018-02-16T11:43:50.859Z,13.97
2018-02-16T11:48:52.614Z,11.20
2018-02-16T11:53:53.610Z,12.17
2018-02-16T11:58:54.595Z,12.97
2018-02-16T12:03:55.603Z,12.43
2018-02-16T12:08:57.351Z,13.00
2018-02-16T12:13:58.367Z,12.00
2018-02-16T12:18:59.366Z,13.60
2018-02-16T12:24:00.389Z,12.67
2018-02-16T12:29:01.370Z,13.83
2018-02-16T12:34:02.366Z,13.87
2018-02-16T12:39:03.364Z,13.40
2018-02-16T12:44:04.359Z,14.50
2018-02-16T12:49:05.355Z,12.93
2018-02-16T12:54:06.355Z,12.90
2018-02-16T12:59:08.088Z,13.03
2018-02-16T13:04:09.068Z,11.33
2018-02-16T13:09:10.052Z,9.10
2018-02-16T13:14:11.047Z,9.13
2018-02-16T13:19:12.037Z,9.13
2018-02-16T13:24:13.023Z,9.70
2018-02-16T13:29:14.035Z,8.97
2018-02-16T13:34:15.038Z,8.60
2018-02-16T13:39:16.066Z,7.87
2018-02-16T13:44:17.075Z,6.70
2018-02-16T13:49:18.055Z,8.23
2018-02-16T13:54:19.063Z,7.10
2018-02-16T13:59:20.787Z,7.33
2018-02-16T14:04:21.782Z,7.30
2018-02-16T14:09:22.774Z,7.50
2018-02-16T14:14:23.780Z,7.37
2018-02-16T14:19:24.783Z,6.80
2018-02-16T14:24:25.784Z,6.20
2018-02-16T14:29:27.511Z,6.80
2018-02-16T14:34:28.519Z,6.43
2018-02-16T14:39:29.530Z,6.30
2018-02-16T14:44:30.498Z,5.90
2018-02-16T14:49:31.575Z,6.30
2018-02-16T14:54:32.587Z,5.43
2018-02-16T14:59:34.347Z,6.30
2018-02-16T15:04:35.351Z,6.00
2018-02-16T15:09:36.384Z,5.20
2018-02-16T15:14:37.387Z,5.07
2018-02-16T15:19:38.379Z,5.53
2018-02-16T15:24:39.391Z,4.20
2018-02-16T15:29:40.419Z,3.60
2018-02-16T15:34:41.411Z,3.30
2018-02-16T15:39:42.383Z,3.37
2018-02-16T15:44:43.364Z,4.33
2018-02-16T15:49:44.359Z,4.10
2018-02-16T15:54:45.351Z,5.00
2018-02-16T15:59:46.343Z,5.60
2018-02-16T16:04:47.335Z,4.57
2018-02-16T16:09:48.344Z,4.23
2018-02-16T16:14:50.083Z,4.00
2018-02-16T16:19:51.071Z,10.67
2018-02-16T16:24:52.075Z,14.00
2018-02-16T16:29:53.062Z,3.77
2018-02-16T16:34:54.836Z,5.90
2018-02-16T16:39:55.819Z,5.97
2018-02-16T16:44:56.882Z,5.10
2018-02-16T16:49:57.940Z,5.30
2018-02-16T16:54:58.922Z,5.63
2018-02-16T16:59:59.905Z,4.13
2018-02-16T17:05:04.559Z,4.73
2018-02-16T17:10:06.139Z,5.30
2018-02-16T17:15:07.132Z,5.23
2018-02-16T17:20:08.128Z,5.33
2018-02-16T17:25:09.890Z,5.83
2018-02-16T17:30:10.928Z,5.83
2018-02-16T17:35:11.927Z,5.70
2018-02-16T17:40:12.939Z,4.13
2018-02-16T17:45:14.052Z,4.93
2018-02-16T17:50:15.058Z,4.57
2018-02-16T17:55:16.075Z,9.33
2018-02-16T18:00:17.859Z,9.83
2018-02-16T18:05:18.833Z,5.83
2018-02-16T18:10:20.592Z,4.80
2018-02-16T18:15:21.599Z,3.93
2018-02-16T18:20:22.590Z,2.90
2018-02-16T18:25:23.598Z,3.47
2018-02-16T18:30:25.350Z,3.67
2018-02-16T18:35:26.342Z,4.30
2018-02-16T18:40:27.346Z,4.60
2018-02-16T18:45:28.365Z,3.57
2018-02-16T18:50:29.368Z,4.20
2018-02-16T18:55:30.372Z,3.13
2018-02-16T19:00:31.380Z,3.57
2018-02-16T19:05:32.355Z,4.50
2018-02-16T19:10:33.370Z,4.60
2018-02-16T19:15:35.120Z,3.50
2018-02-16T19:20:36.130Z,2.80
2018-02-16T19:25:37.121Z,3.60
2018-02-16T19:30:38.103Z,3.70
2018-02-16T19:35:39.850Z,4.00
2018-02-16T19:40:40.873Z,4.83
2018-02-16T19:45:41.877Z,6.40
2018-02-16T19:50:43.595Z,6.40
2018-02-16T19:55:45.613Z,6.70
2018-02-16T20:00:46.759Z,6.00
2018-02-16T20:05:48.255Z,6.53
2018-02-16T20:10:49.321Z,5.33
2018-02-16T20:15:51.139Z,5.10
2018-02-16T20:20:52.202Z,5.70
2018-02-16T20:25:53.224Z,7.13
2018-02-16T20:30:54.966Z,4.90
2018-02-16T20:35:56.004Z,4.50
2018-02-16T20:40:58.100Z,5.60
2018-02-16T20:45:59.153Z,5.77
2018-02-16T20:51:00.150Z,4.97
2018-02-16T20:56:01.180Z,5.20
2018-02-16T21:01:02.203Z,5.77
2018-02-16T21:06:03.214Z,5.97
2018-02-16T21:11:04.214Z,5.90
2018-02-16T21:16:05.952Z,5.63
2018-02-16T21:21:06.991Z,4.90
2018-02-16T21:26:15.611Z,8.70
2018-02-16T21:31:16.596Z,9.23
2018-02-16T21:36:17.604Z,8.40
2018-02-16T21:41:18.635Z,10.23
2018-02-16T21:46:19.642Z,13.07
2018-02-16T21:51:20.648Z,11.20
2018-02-16T21:56:21.649Z,10.10
2018-02-16T22:01:22.655Z,9.80
2018-02-16T22:06:23.651Z,11.17
2018-02-16T22:11:24.656Z,10.37
2018-02-16T22:16:25.647Z,10.93
2018-02-16T22:21:26.652Z,11.73
2018-02-16T22:26:27.680Z,11.90
2018-02-16T22:31:28.694Z,9.43
2018-02-16T22:36:29.686Z,7.10
2018-02-16T22:41:30.692Z,6.53
2018-02-16T22:46:32.440Z,7.23
2018-02-16T22:51:33.420Z,6.60
2018-02-16T22:56:34.426Z,12.80
2018-02-16T23:01:35.436Z,9.10
2018-02-16T23:06:37.162Z,8.30
2018-02-16T23:11:38.189Z,8.07
2018-02-16T23:16:39.151Z,8.90
2018-02-16T23:21:40.146Z,8.20
2018-02-16T23:26:41.154Z,9.40
2018-02-16T23:31:42.160Z,8.80
2018-02-16T23:36:43.900Z,8.87
2018-02-16T23:41:44.894Z,9.40
2018-02-16T23:46:45.839Z,10.03
2018-02-16T23:51:46.843Z,9.57
2018-02-16T23:56:48.603Z,11.70
